sensor_id;sensor_type;location;lat;lon;timestamp;P1;durP1;ratioP1;P2;durP2;ratioP2
5999;SDS011;3028;49.468;7.694;2023-05-21T00:01:22;11.98;;;10.90;;
5999;SDS011;3028;49.468;7.694;2023-05-21T00:03:26;11.77;;;10.77;;
5999;SDS011;3028;49.468;7.694;2023-05-21T00:05:30;12.80;;;11.77;;
5999;SDS011;3028;49.468;7.694;2023-05-21T00:07:33;11.90;;;11.02;;
5999;SDS011;3028;49.468;7.694;2023-05-21T00:09:35;11.48;;;10.48;;
5999;SDS011;3028;49.468;7.694;2023-05-21T00:11:38;13.18;;;10.73;;
5999;SDS011;3028;49.468;7.694;2023-05-21T00:13:40;13.85;;;12.18;;
5999;SDS011;3028;49.468;7.694;2023-05-21T00:15:42;12.98;;;12.00;;
5999;SDS011;3028;49.468;7.694;2023-05-21T00:17:44;12.65;;;11.65;;
5999;SDS011;3028;49.468;7.694;2023-05-21T00:19:46;13.48;;;11.95;;
5999;SDS011;3028;49.468;7.694;2023-05-21T00:21:48;13.13;;;12.10;;
5999;SDS011;3028;49.468;7.694;2023-05-21T00:23:50;11.50;;;10.70;;
5999;SDS011;3028;49.468;7.694;2023-05-21T00:25:54;11.27;;;10.38;;
5999;SDS011;3028;49.468;7.694;2023-05-21T00:27:56;11.90;;;11.10;;
5999;SDS011;3028;49.468;7.694;2023-05-21T00:29:58;13.88;;;12.27;;
5999;SDS011;3028;49.468;7.694;2023-05-21T00:32:00;12.32;;;11.43;;
5999;SDS011;3028;49.468;7.694;2023-05-21T00:34:02;12.25;;;11.38;;
5999;SDS011;3028;49.468;7.694;2023-05-21T00:36:04;12.45;;;11.55;;
5999;SDS011;3028;49.468;7.694;2023-05-21T00:38:06;11.85;;;10.93;;
5999;SDS011;3028;49.468;7.694;2023-05-21T00:40:09;10.38;;;9.68;;
5999;SDS011;3028;49.468;7.694;2023-05-21T00:42:11;12.73;;;11.70;;
5999;SDS011;3028;49.468;7.694;2023-05-21T00:44:18;13.20;;;12.10;;
5999;SDS011;3028;49.468;7.694;2023-05-21T00:46:20;12.10;;;11.18;;
5999;SDS011;3028;49.468;7.694;2023-05-21T00:48:23;12.65;;;11.75;;
5999;SDS011;3028;49.468;7.694;2023-05-21T00:50:25;13.82;;;12.63;;
5999;SDS011;3028;49.468;7.694;2023-05-21T00:52:28;12.35;;;11.45;;
5999;SDS011;3028;49.468;7.694;2023-05-21T00:54:30;13.73;;;12.63;;
5999;SDS011;3028;49.468;7.694;2023-05-21T00:56:32;14.50;;;13.32;;
5999;SDS011;3028;49.468;7.694;2023-05-21T00:58:34;12.85;;;11.93;;
5999;SDS011;3028;49.468;7.694;2023-05-21T01:00:36;13.98;;;12.85;;
5999;SDS011;3028;49.468;7.694;2023-05-21T01:02:38;12.60;;;11.70;;
5999;SDS011;3028;49.468;7.694;2023-05-21T01:04:44;14.48;;;13.18;;
5999;SDS011;3028;49.468;7.694;2023-05-21T01:06:46;14.18;;;13.02;;
5999;SDS011;3028;49.468;7.694;2023-05-21T01:08:48;12.85;;;11.75;;
5999;SDS011;3028;49.468;7.694;2023-05-21T01:10:51;11.43;;;10.50;;
5999;SDS011;3028;49.468;7.694;2023-05-21T01:12:56;13.85;;;12.88;;
5999;SDS011;3028;49.468;7.694;2023-05-21T01:14:59;14.35;;;13.23;;
5999;SDS011;3028;49.468;7.694;2023-05-21T01:17:04;13.63;;;12.57;;
5999;SDS011;3028;49.468;7.694;2023-05-21T01:19:07;13.68;;;12.68;;
5999;SDS011;3028;49.468;7.694;2023-05-21T01:21:11;12.73;;;11.73;;
5999;SDS011;3028;49.468;7.694;2023-05-21T01:23:15;12.60;;;11.68;;
5999;SDS011;3028;49.468;7.694;2023-05-21T01:25:21;13.55;;;12.45;;
5999;SDS011;3028;49.468;7.694;2023-05-21T01:27:23;13.07;;;12.07;;
5999;SDS011;3028;49.468;7.694;2023-05-21T01:29:25;14.38;;;13.07;;
5999;SDS011;3028;49.468;7.694;2023-05-21T01:31:29;13.40;;;12.05;;
5999;SDS011;3028;49.468;7.694;2023-05-21T01:33:52;13.70;;;12.70;;
5999;SDS011;3028;49.468;7.694;2023-05-21T01:36:01;13.65;;;12.55;;
5999;SDS011;3028;49.468;7.694;2023-05-21T01:38:19;13.60;;;12.60;;
5999;SDS011;3028;49.468;7.694;2023-05-21T01:43:14;15.18;;;13.98;;
5999;SDS011;3028;49.468;7.694;2023-05-21T01:45:19;15.80;;;14.63;;
5999;SDS011;3028;49.468;7.694;2023-05-21T01:47:23;13.73;;;12.68;;
5999;SDS011;3028;49.468;7.694;2023-05-21T01:49:25;13.63;;;12.57;;
5999;SDS011;3028;49.468;7.694;2023-05-21T01:51:27;14.10;;;12.98;;
5999;SDS011;3028;49.468;7.694;2023-05-21T01:53:29;12.73;;;11.82;;
5999;SDS011;3028;49.468;7.694;2023-05-21T01:55:31;13.68;;;12.57;;
5999;SDS011;3028;49.468;7.694;2023-05-21T01:57:33;13.35;;;12.18;;
5999;SDS011;3028;49.468;7.694;2023-05-21T01:59:35;13.30;;;12.32;;
5999;SDS011;3028;49.468;7.694;2023-05-21T02:01:37;13.50;;;12.50;;
5999;SDS011;3028;49.468;7.694;2023-05-21T02:03:39;15.38;;;14.15;;
5999;SDS011;3028;49.468;7.694;2023-05-21T02:05:41;14.85;;;13.70;;
5999;SDS011;3028;49.468;7.694;2023-05-21T02:07:43;14.00;;;12.88;;
5999;SDS011;3028;49.468;7.694;2023-05-21T02:09:46;14.52;;;13.32;;
5999;SDS011;3028;49.468;7.694;2023-05-21T02:11:48;14.23;;;13.05;;
5999;SDS011;3028;49.468;7.694;2023-05-21T02:13:49;13.43;;;12.35;;
5999;SDS011;3028;49.468;7.694;2023-05-21T02:15:51;13.73;;;12.65;;
5999;SDS011;3028;49.468;7.694;2023-05-21T02:17:55;13.50;;;12.50;;
5999;SDS011;3028;49.468;7.694;2023-05-21T02:19:59;15.43;;;13.35;;
5999;SDS011;3028;49.468;7.694;2023-05-21T02:22:13;14.07;;;12.98;;
5999;SDS011;3028;49.468;7.694;2023-05-21T02:24:14;14.00;;;12.88;;
5999;SDS011;3028;49.468;7.694;2023-05-21T02:26:19;14.02;;;12.35;;
5999;SDS011;3028;49.468;7.694;2023-05-21T02:28:22;15.68;;;14.38;;
5999;SDS011;3028;49.468;7.694;2023-05-21T02:30:24;14.82;;;13.73;;
5999;SDS011;3028;49.468;7.694;2023-05-21T02:32:26;14.55;;;13.45;;
5999;SDS011;3028;49.468;7.694;2023-05-21T02:34:28;15.20;;;14.00;;
5999;SDS011;3028;49.468;7.694;2023-05-21T02:36:33;13.38;;;12.18;;
5999;SDS011;3028;49.468;7.694;2023-05-21T02:38:36;15.75;;;14.50;;
5999;SDS011;3028;49.468;7.694;2023-05-21T02:40:38;15.57;;;14.48;;
5999;SDS011;3028;49.468;7.694;2023-05-21T02:42:40;19.45;;;12.80;;
5999;SDS011;3028;49.468;7.694;2023-05-21T02:44:42;13.70;;;12.68;;
5999;SDS011;3028;49.468;7.694;2023-05-21T02:46:44;14.80;;;13.60;;
5999;SDS011;3028;49.468;7.694;2023-05-21T02:48:46;15.00;;;13.82;;
5999;SDS011;3028;49.468;7.694;2023-05-21T02:50:47;14.20;;;13.20;;
5999;SDS011;3028;49.468;7.694;2023-05-21T02:52:49;15.93;;;14.63;;
5999;SDS011;3028;49.468;7.694;2023-05-21T02:54:52;16.10;;;14.98;;
5999;SDS011;3028;49.468;7.694;2023-05-21T02:56:54;14.63;;;13.63;;
5999;SDS011;3028;49.468;7.694;2023-05-21T02:58:56;14.00;;;12.90;;
5999;SDS011;3028;49.468;7.694;2023-05-21T03:00:58;14.55;;;13.45;;
5999;SDS011;3028;49.468;7.694;2023-05-21T03:03:00;14.57;;;13.40;;
5999;SDS011;3028;49.468;7.694;2023-05-21T03:05:02;14.43;;;13.32;;
5999;SDS011;3028;49.468;7.694;2023-05-21T03:07:04;15.43;;;14.27;;
5999;SDS011;3028;49.468;7.694;2023-05-21T03:09:09;14.70;;;13.60;;
5999;SDS011;3028;49.468;7.694;2023-05-21T03:11:11;14.80;;;13.63;;
5999;SDS011;3028;49.468;7.694;2023-05-21T03:13:13;16.38;;;15.15;;
5999;SDS011;3028;49.468;7.694;2023-05-21T03:15:15;14.35;;;13.02;;
5999;SDS011;3028;49.468;7.694;2023-05-21T03:17:17;14.60;;;13.50;;
5999;SDS011;3028;49.468;7.694;2023-05-21T03:19:19;14.93;;;13.73;;
5999;SDS011;3028;49.468;7.694;2023-05-21T03:21:21;14.30;;;13.15;;
5999;SDS011;3028;49.468;7.694;2023-05-21T03:23:23;14.82;;;13.63;;
5999;SDS011;3028;49.468;7.694;2023-05-21T03:25:25;14.07;;;12.82;;
5999;SDS011;3028;49.468;7.694;2023-05-21T03:27:27;15.52;;;14.32;;
5999;SDS011;3028;49.468;7.694;2023-05-21T03:29:29;13.80;;;12.60;;
5999;SDS011;3028;49.468;7.694;2023-05-21T03:31:31;14.73;;;13.57;;
5999;SDS011;3028;49.468;7.694;2023-05-21T03:33:32;13.50;;;12.50;;
5999;SDS011;3028;49.468;7.694;2023-05-21T03:35:34;14.82;;;13.48;;
5999;SDS011;3028;49.468;7.694;2023-05-21T03:37:36;14.13;;;13.13;;
5999;SDS011;3028;49.468;7.694;2023-05-21T03:39:39;15.05;;;13.95;;
5999;SDS011;3028;49.468;7.694;2023-05-21T03:41:40;15.00;;;13.60;;
5999;SDS011;3028;49.468;7.694;2023-05-21T03:43:42;13.57;;;12.48;;
5999;SDS011;3028;49.468;7.694;2023-05-21T03:45:44;14.57;;;13.13;;
5999;SDS011;3028;49.468;7.694;2023-05-21T03:47:46;14.93;;;13.85;;
5999;SDS011;3028;49.468;7.694;2023-05-21T03:49:49;14.95;;;13.73;;
5999;SDS011;3028;49.468;7.694;2023-05-21T03:51:51;13.68;;;12.43;;
5999;SDS011;3028;49.468;7.694;2023-05-21T03:53:52;13.60;;;12.50;;
5999;SDS011;3028;49.468;7.694;2023-05-21T03:55:54;15.02;;;13.75;;
5999;SDS011;3028;49.468;7.694;2023-05-21T03:57:56;13.88;;;12.82;;
5999;SDS011;3028;49.468;7.694;2023-05-21T03:59:58;15.05;;;13.85;;
5999;SDS011;3028;49.468;7.694;2023-05-21T04:02:00;14.65;;;13.38;;
5999;SDS011;3028;49.468;7.694;2023-05-21T04:04:01;13.05;;;11.95;;
5999;SDS011;3028;49.468;7.694;2023-05-21T04:06:03;13.77;;;12.77;;
5999;SDS011;3028;49.468;7.694;2023-05-21T04:08:05;15.35;;;14.15;;
5999;SDS011;3028;49.468;7.694;2023-05-21T04:10:07;13.75;;;12.55;;
5999;SDS011;3028;49.468;7.694;2023-05-21T04:12:09;14.23;;;13.18;;
5999;SDS011;3028;49.468;7.694;2023-05-21T04:14:11;14.23;;;13.13;;
5999;SDS011;3028;49.468;7.694;2023-05-21T04:16:13;13.90;;;12.77;;
5999;SDS011;3028;49.468;7.694;2023-05-21T04:18:19;14.48;;;13.15;;
5999;SDS011;3028;49.468;7.694;2023-05-21T04:20:24;13.07;;;12.10;;
5999;SDS011;3028;49.468;7.694;2023-05-21T04:22:25;15.40;;;13.88;;
5999;SDS011;3028;49.468;7.694;2023-05-21T04:24:27;12.05;;;11.05;;
5999;SDS011;3028;49.468;7.694;2023-05-21T04:26:29;14.57;;;13.15;;
5999;SDS011;3028;49.468;7.694;2023-05-21T04:28:34;16.23;;;14.85;;
5999;SDS011;3028;49.468;7.694;2023-05-21T04:30:36;14.63;;;13.32;;
5999;SDS011;3028;49.468;7.694;2023-05-21T04:32:38;13.88;;;12.77;;
5999;SDS011;3028;49.468;7.694;2023-05-21T04:34:40;15.27;;;14.07;;
5999;SDS011;3028;49.468;7.694;2023-05-21T04:36:42;14.25;;;13.20;;
5999;SDS011;3028;49.468;7.694;2023-05-21T04:38:47;13.80;;;12.68;;
5999;SDS011;3028;49.468;7.694;2023-05-21T04:40:50;13.60;;;12.60;;
5999;SDS011;3028;49.468;7.694;2023-05-21T04:42:52;12.57;;;11.68;;
5999;SDS011;3028;49.468;7.694;2023-05-21T04:44:54;13.52;;;12.43;;
5999;SDS011;3028;49.468;7.694;2023-05-21T04:46:55;13.50;;;12.43;;
5999;SDS011;3028;49.468;7.694;2023-05-21T04:48:58;13.02;;;12.02;;
5999;SDS011;3028;49.468;7.694;2023-05-21T04:51:03;14.55;;;13.45;;
5999;SDS011;3028;49.468;7.694;2023-05-21T04:53:06;14.77;;;13.38;;
5999;SDS011;3028;49.468;7.694;2023-05-21T04:55:08;13.90;;;12.15;;
5999;SDS011;3028;49.468;7.694;2023-05-21T04:57:10;15.18;;;13.90;;
5999;SDS011;3028;49.468;7.694;2023-05-21T04:59:12;14.50;;;12.95;;
5999;SDS011;3028;49.468;7.694;2023-05-21T05:01:14;12.35;;;11.25;;
5999;SDS011;3028;49.468;7.694;2023-05-21T05:03:16;15.30;;;14.00;;
5999;SDS011;3028;49.468;7.694;2023-05-21T05:05:18;13.93;;;12.63;;
5999;SDS011;3028;49.468;7.694;2023-05-21T05:07:20;14.93;;;13.68;;
5999;SDS011;3028;49.468;7.694;2023-05-21T05:09:23;13.07;;;12.18;;
5999;SDS011;3028;49.468;7.694;2023-05-21T05:11:25;12.52;;;11.52;;
5999;SDS011;3028;49.468;7.694;2023-05-21T05:13:27;13.75;;;12.45;;
5999;SDS011;3028;49.468;7.694;2023-05-21T05:15:29;14.43;;;13.23;;
5999;SDS011;3028;49.468;7.694;2023-05-21T05:17:33;14.05;;;12.95;;
5999;SDS011;3028;49.468;7.694;2023-05-21T05:19:35;16.40;;;13.02;;
5999;SDS011;3028;49.468;7.694;2023-05-21T05:21:37;14.27;;;13.27;;
5999;SDS011;3028;49.468;7.694;2023-05-21T05:23:39;15.00;;;13.80;;
5999;SDS011;3028;49.468;7.694;2023-05-21T05:25:41;13.05;;;12.02;;
5999;SDS011;3028;49.468;7.694;2023-05-21T05:27:42;14.32;;;13.27;;
5999;SDS011;3028;49.468;7.694;2023-05-21T05:29:44;12.55;;;11.65;;
5999;SDS011;3028;49.468;7.694;2023-05-21T05:31:46;13.85;;;12.75;;
5999;SDS011;3028;49.468;7.694;2023-05-21T05:33:48;13.55;;;12.45;;
5999;SDS011;3028;49.468;7.694;2023-05-21T05:35:50;15.48;;;11.82;;
5999;SDS011;3028;49.468;7.694;2023-05-21T05:37:52;13.43;;;12.10;;
5999;SDS011;3028;49.468;7.694;2023-05-21T05:39:54;12.48;;;11.48;;
5999;SDS011;3028;49.468;7.694;2023-05-21T05:41:56;13.75;;;12.65;;
5999;SDS011;3028;49.468;7.694;2023-05-21T05:43:58;13.02;;;11.93;;
5999;SDS011;3028;49.468;7.694;2023-05-21T05:45:59;15.15;;;13.90;;
5999;SDS011;3028;49.468;7.694;2023-05-21T05:48:01;15.85;;;12.43;;
5999;SDS011;3028;49.468;7.694;2023-05-21T05:50:03;12.95;;;11.95;;
5999;SDS011;3028;49.468;7.694;2023-05-21T05:52:06;13.63;;;12.63;;
5999;SDS011;3028;49.468;7.694;2023-05-21T05:54:08;12.38;;;11.52;;
5999;SDS011;3028;49.468;7.694;2023-05-21T05:56:09;13.88;;;12.73;;
5999;SDS011;3028;49.468;7.694;2023-05-21T05:58:11;13.57;;;12.20;;
5999;SDS011;3028;49.468;7.694;2023-05-21T06:00:13;12.90;;;11.90;;
5999;SDS011;3028;49.468;7.694;2023-05-21T06:02:15;12.15;;;11.25;;
5999;SDS011;3028;49.468;7.694;2023-05-21T06:04:17;12.23;;;11.32;;
5999;SDS011;3028;49.468;7.694;2023-05-21T06:06:19;13.52;;;12.43;;
5999;SDS011;3028;49.468;7.694;2023-05-21T06:08:21;13.88;;;12.77;;
5999;SDS011;3028;49.468;7.694;2023-05-21T06:10:23;14.15;;;12.98;;
5999;SDS011;3028;49.468;7.694;2023-05-21T06:12:28;12.93;;;12.00;;
5999;SDS011;3028;49.468;7.694;2023-05-21T06:14:30;19.92;;;12.27;;
5999;SDS011;3028;49.468;7.694;2023-05-21T06:16:32;14.50;;;13.30;;
5999;SDS011;3028;49.468;7.694;2023-05-21T06:18:34;12.88;;;11.88;;
5999;SDS011;3028;49.468;7.694;2023-05-21T06:20:36;12.07;;;11.18;;
5999;SDS011;3028;49.468;7.694;2023-05-21T06:22:38;12.48;;;11.27;;
5999;SDS011;3028;49.468;7.694;2023-05-21T06:24:40;11.77;;;10.63;;
5999;SDS011;3028;49.468;7.694;2023-05-21T06:26:41;11.88;;;10.85;;
5999;SDS011;3028;49.468;7.694;2023-05-21T06:28:43;11.80;;;10.90;;
5999;SDS011;3028;49.468;7.694;2023-05-21T06:30:45;13.10;;;12.10;;
5999;SDS011;3028;49.468;7.694;2023-05-21T06:32:47;11.48;;;10.45;;
5999;SDS011;3028;49.468;7.694;2023-05-21T06:34:49;13.73;;;12.70;;
5999;SDS011;3028;49.468;7.694;2023-05-21T06:36:50;12.48;;;11.50;;
5999;SDS011;3028;49.468;7.694;2023-05-21T06:38:52;11.55;;;10.30;;
5999;SDS011;3028;49.468;7.694;2023-05-21T06:40:54;12.13;;;11.13;;
5999;SDS011;3028;49.468;7.694;2023-05-21T06:42:56;11.13;;;10.30;;
5999;SDS011;3028;49.468;7.694;2023-05-21T06:45:00;11.48;;;10.45;;
5999;SDS011;3028;49.468;7.694;2023-05-21T06:47:02;11.95;;;11.05;;
5999;SDS011;3028;49.468;7.694;2023-05-21T06:49:04;11.88;;;11.07;;
5999;SDS011;3028;49.468;7.694;2023-05-21T06:51:07;11.07;;;10.27;;
5999;SDS011;3028;49.468;7.694;2023-05-21T06:53:09;12.82;;;11.45;;
5999;SDS011;3028;49.468;7.694;2023-05-21T06:55:10;12.23;;;11.23;;
5999;SDS011;3028;49.468;7.694;2023-05-21T06:57:13;11.40;;;10.30;;
5999;SDS011;3028;49.468;7.694;2023-05-21T06:59:16;12.88;;;11.57;;
5999;SDS011;3028;49.468;7.694;2023-05-21T07:01:18;11.45;;;10.60;;
5999;SDS011;3028;49.468;7.694;2023-05-21T07:03:20;12.32;;;11.32;;
5999;SDS011;3028;49.468;7.694;2023-05-21T07:05:22;11.60;;;10.70;;
5999;SDS011;3028;49.468;7.694;2023-05-21T07:07:23;11.73;;;10.73;;
5999;SDS011;3028;49.468;7.694;2023-05-21T07:09:25;11.63;;;10.63;;
5999;SDS011;3028;49.468;7.694;2023-05-21T07:11:27;12.48;;;11.57;;
5999;SDS011;3028;49.468;7.694;2023-05-21T07:13:29;13.40;;;12.40;;
5999;SDS011;3028;49.468;7.694;2023-05-21T07:15:31;12.95;;;11.82;;
5999;SDS011;3028;49.468;7.694;2023-05-21T07:17:33;11.68;;;10.77;;
5999;SDS011;3028;49.468;7.694;2023-05-21T07:19:34;11.70;;;10.90;;
5999;SDS011;3028;49.468;7.694;2023-05-21T07:21:38;11.85;;;10.68;;
5999;SDS011;3028;49.468;7.694;2023-05-21T07:23:40;11.55;;;10.30;;
5999;SDS011;3028;49.468;7.694;2023-05-21T07:25:42;14.95;;;10.55;;
5999;SDS011;3028;49.468;7.694;2023-05-21T07:27:43;11.70;;;10.90;;
5999;SDS011;3028;49.468;7.694;2023-05-21T07:29:45;12.13;;;11.02;;
5999;SDS011;3028;49.468;7.694;2023-05-21T07:31:47;12.15;;;11.00;;
5999;SDS011;3028;49.468;7.694;2023-05-21T07:33:49;12.00;;;10.90;;
5999;SDS011;3028;49.468;7.694;2023-05-21T07:35:52;11.30;;;10.20;;
5999;SDS011;3028;49.468;7.694;2023-05-21T07:38:00;11.10;;;10.30;;
5999;SDS011;3028;49.468;7.694;2023-05-21T07:40:02;12.68;;;11.48;;
5999;SDS011;3028;49.468;7.694;2023-05-21T07:42:06;11.32;;;10.38;;
5999;SDS011;3028;49.468;7.694;2023-05-21T07:44:08;11.95;;;10.82;;
5999;SDS011;3028;49.468;7.694;2023-05-21T07:46:10;11.90;;;11.00;;
5999;SDS011;3028;49.468;7.694;2023-05-21T07:48:12;11.70;;;10.82;;
5999;SDS011;3028;49.468;7.694;2023-05-21T07:50:14;12.43;;;11.35;;
5999;SDS011;3028;49.468;7.694;2023-05-21T07:52:16;11.48;;;10.65;;
5999;SDS011;3028;49.468;7.694;2023-05-21T07:54:18;12.52;;;11.52;;
5999;SDS011;3028;49.468;7.694;2023-05-21T07:56:20;10.93;;;10.02;;
5999;SDS011;3028;49.468;7.694;2023-05-21T07:58:21;11.13;;;10.23;;
5999;SDS011;3028;49.468;7.694;2023-05-21T08:00:23;11.32;;;10.43;;
5999;SDS011;3028;49.468;7.694;2023-05-21T08:02:26;11.50;;;10.60;;
5999;SDS011;3028;49.468;7.694;2023-05-21T08:04:27;12.02;;;10.98;;
5999;SDS011;3028;49.468;7.694;2023-05-21T08:06:30;12.15;;;10.95;;
5999;SDS011;3028;49.468;7.694;2023-05-21T08:08:32;10.10;;;9.35;;
5999;SDS011;3028;49.468;7.694;2023-05-21T08:10:33;11.43;;;10.63;;
5999;SDS011;3028;49.468;7.694;2023-05-21T08:12:36;11.35;;;10.48;;
5999;SDS011;3028;49.468;7.694;2023-05-21T08:14:37;10.93;;;10.02;;
5999;SDS011;3028;49.468;7.694;2023-05-21T08:16:39;12.90;;;11.90;;
5999;SDS011;3028;49.468;7.694;2023-05-21T08:18:41;10.77;;;10.05;;
5999;SDS011;3028;49.468;7.694;2023-05-21T08:20:43;11.75;;;10.98;;
5999;SDS011;3028;49.468;7.694;2023-05-21T08:22:44;11.25;;;10.45;;
5999;SDS011;3028;49.468;7.694;2023-05-21T08:24:48;11.02;;;10.23;;
5999;SDS011;3028;49.468;7.694;2023-05-21T08:26:49;11.25;;;10.45;;
5999;SDS011;3028;49.468;7.694;2023-05-21T08:28:51;12.07;;;11.07;;
5999;SDS011;3028;49.468;7.694;2023-05-21T08:30:53;11.82;;;10.93;;
5999;SDS011;3028;49.468;7.694;2023-05-21T08:32:55;12.63;;;11.63;;
5999;SDS011;3028;49.468;7.694;2023-05-21T08:34:57;13.02;;;11.90;;
5999;SDS011;3028;49.468;7.694;2023-05-21T08:37:01;11.23;;;10.43;;
5999;SDS011;3028;49.468;7.694;2023-05-21T08:39:04;11.23;;;10.43;;
5999;SDS011;3028;49.468;7.694;2023-05-21T08:41:06;14.65;;;10.60;;
5999;SDS011;3028;49.468;7.694;2023-05-21T08:43:08;11.90;;;10.77;;
5999;SDS011;3028;49.468;7.694;2023-05-21T08:45:17;10.32;;;9.45;;
5999;SDS011;3028;49.468;7.694;2023-05-21T08:47:22;11.98;;;11.05;;
5999;SDS011;3028;49.468;7.694;2023-05-21T08:49:27;11.48;;;10.57;;
5999;SDS011;3028;49.468;7.694;2023-05-21T08:51:31;11.90;;;10.88;;
5999;SDS011;3028;49.468;7.694;2023-05-21T08:53:33;11.80;;;10.85;;
5999;SDS011;3028;49.468;7.694;2023-05-21T08:55:35;12.05;;;11.00;;
5999;SDS011;3028;49.468;7.694;2023-05-21T08:57:41;10.63;;;9.93;;
5999;SDS011;3028;49.468;7.694;2023-05-21T08:59:43;11.88;;;10.93;;
5999;SDS011;3028;49.468;7.694;2023-05-21T09:01:45;12.00;;;11.02;;
5999;SDS011;3028;49.468;7.694;2023-05-21T09:03:50;11.38;;;10.52;;
5999;SDS011;3028;49.468;7.694;2023-05-21T09:05:57;11.32;;;10.43;;
5999;SDS011;3028;49.468;7.694;2023-05-21T09:08:04;11.80;;;10.88;;
5999;SDS011;3028;49.468;7.694;2023-05-21T09:10:11;10.75;;;10.00;;
5999;SDS011;3028;49.468;7.694;2023-05-21T09:12:13;11.38;;;10.57;;
5999;SDS011;3028;49.468;7.694;2023-05-21T09:14:15;11.20;;;9.65;;
5999;SDS011;3028;49.468;7.694;2023-05-21T09:16:17;11.50;;;10.13;;
5999;SDS011;3028;49.468;7.694;2023-05-21T09:18:19;12.40;;;11.45;;
5999;SDS011;3028;49.468;7.694;2023-05-21T09:20:24;11.80;;;10.95;;
5999;SDS011;3028;49.468;7.694;2023-05-21T09:22:27;11.18;;;10.27;;
5999;SDS011;3028;49.468;7.694;2023-05-21T09:24:29;11.75;;;10.80;;
5999;SDS011;3028;49.468;7.694;2023-05-21T09:26:36;10.85;;;10.15;;
5999;SDS011;3028;49.468;7.694;2023-05-21T09:28:38;11.80;;;10.90;;
5999;SDS011;3028;49.468;7.694;2023-05-21T09:30:46;10.68;;;9.82;;
5999;SDS011;3028;49.468;7.694;2023-05-21T09:32:53;11.63;;;10.52;;
5999;SDS011;3028;49.468;7.694;2023-05-21T09:35:00;10.27;;;9.57;;
5999;SDS011;3028;49.468;7.694;2023-05-21T09:37:10;10.45;;;9.75;;
5999;SDS011;3028;49.468;7.694;2023-05-21T09:39:27;10.48;;;9.57;;
5999;SDS011;3028;49.468;7.694;2023-05-21T09:41:33;10.65;;;9.90;;
5999;SDS011;3028;49.468;7.694;2023-05-21T09:43:36;9.60;;;8.80;;
5999;SDS011;3028;49.468;7.694;2023-05-21T09:45:38;10.15;;;9.35;;
5999;SDS011;3028;49.468;7.694;2023-05-21T09:47:51;11.13;;;10.27;;
5999;SDS011;3028;49.468;7.694;2023-05-21T09:49:56;11.18;;;10.27;;
5999;SDS011;3028;49.468;7.694;2023-05-21T09:51:58;14.98;;;8.50;;
5999;SDS011;3028;49.468;7.694;2023-05-21T09:54:01;10.43;;;9.73;;
5999;SDS011;3028;49.468;7.694;2023-05-21T09:56:03;9.10;;;8.50;;
5999;SDS011;3028;49.468;7.694;2023-05-21T09:58:05;10.35;;;9.45;;
5999;SDS011;3028;49.468;7.694;2023-05-21T10:00:08;11.13;;;10.23;;
5999;SDS011;3028;49.468;7.694;2023-05-21T10:02:14;9.15;;;8.50;;
5999;SDS011;3028;49.468;7.694;2023-05-21T10:04:17;9.88;;;9.10;;
5999;SDS011;3028;49.468;7.694;2023-05-21T10:06:19;9.55;;;8.85;;
5999;SDS011;3028;49.468;7.694;2023-05-21T10:08:22;11.25;;;8.95;;
5999;SDS011;3028;49.468;7.694;2023-05-21T10:10:27;10.07;;;9.23;;
5999;SDS011;3028;49.468;7.694;2023-05-21T10:12:30;9.90;;;9.15;;
5999;SDS011;3028;49.468;7.694;2023-05-21T10:14:33;9.75;;;9.05;;
5999;SDS011;3028;49.468;7.694;2023-05-21T10:16:36;10.38;;;9.45;;
5999;SDS011;3028;49.468;7.694;2023-05-21T10:18:38;9.82;;;9.00;;
5999;SDS011;3028;49.468;7.694;2023-05-21T10:20:40;10.20;;;9.18;;
5999;SDS011;3028;49.468;7.694;2023-05-21T10:22:43;9.38;;;8.73;;
5999;SDS011;3028;49.468;7.694;2023-05-21T10:24:45;10.00;;;9.15;;
5999;SDS011;3028;49.468;7.694;2023-05-21T10:26:47;9.75;;;8.95;;
5999;SDS011;3028;49.468;7.694;2023-05-21T10:28:49;10.02;;;9.30;;
5999;SDS011;3028;49.468;7.694;2023-05-21T10:30:51;8.45;;;7.85;;
5999;SDS011;3028;49.468;7.694;2023-05-21T10:32:54;10.05;;;9.35;;
5999;SDS011;3028;49.468;7.694;2023-05-21T10:34:57;9.52;;;8.73;;
5999;SDS011;3028;49.468;7.694;2023-05-21T10:37:02;11.73;;;10.48;;
5999;SDS011;3028;49.468;7.694;2023-05-21T10:39:05;9.82;;;9.13;;
5999;SDS011;3028;49.468;7.694;2023-05-21T10:41:08;10.25;;;9.45;;
5999;SDS011;3028;49.468;7.694;2023-05-21T10:47:50;10.30;;;9.50;;
5999;SDS011;3028;49.468;7.694;2023-05-21T10:50:23;9.43;;;8.73;;
5999;SDS011;3028;49.468;7.694;2023-05-21T10:59:46;10.10;;;9.35;;
5999;SDS011;3028;49.468;7.694;2023-05-21T11:01:49;9.20;;;8.55;;
5999;SDS011;3028;49.468;7.694;2023-05-21T11:03:53;11.40;;;10.50;;
5999;SDS011;3028;49.468;7.694;2023-05-21T11:05:55;9.93;;;9.02;;
5999;SDS011;3028;49.468;7.694;2023-05-21T11:07:58;10.15;;;9.38;;
5999;SDS011;3028;49.468;7.694;2023-05-21T11:13:03;10.80;;;10.00;;
5999;SDS011;3028;49.468;7.694;2023-05-21T11:15:16;10.45;;;9.40;;
5999;SDS011;3028;49.468;7.694;2023-05-21T11:19:48;10.18;;;9.30;;
5999;SDS011;3028;49.468;7.694;2023-05-21T11:21:53;10.23;;;9.27;;
5999;SDS011;3028;49.468;7.694;2023-05-21T11:23:58;10.02;;;9.23;;
5999;SDS011;3028;49.468;7.694;2023-05-21T11:26:02;9.75;;;8.88;;
5999;SDS011;3028;49.468;7.694;2023-05-21T11:28:04;9.75;;;9.05;;
5999;SDS011;3028;49.468;7.694;2023-05-21T11:30:07;11.10;;;10.10;;
5999;SDS011;3028;49.468;7.694;2023-05-21T11:32:11;9.73;;;8.93;;
5999;SDS011;3028;49.468;7.694;2023-05-21T11:34:19;9.63;;;8.88;;
5999;SDS011;3028;49.468;7.694;2023-05-21T11:36:28;9.40;;;8.80;;
5999;SDS011;3028;49.468;7.694;2023-05-21T11:38:30;9.18;;;8.48;;
5999;SDS011;3028;49.468;7.694;2023-05-21T11:40:33;8.93;;;8.13;;
5999;SDS011;3028;49.468;7.694;2023-05-21T11:42:39;9.80;;;8.90;;
5999;SDS011;3028;49.468;7.694;2023-05-21T11:44:43;10.32;;;9.25;;
5999;SDS011;3028;49.468;7.694;2023-05-21T11:46:47;9.88;;;9.27;;
5999;SDS011;3028;49.468;7.694;2023-05-21T11:48:49;9.50;;;8.68;;
5999;SDS011;3028;49.468;7.694;2023-05-21T11:50:51;9.20;;;8.50;;
5999;SDS011;3028;49.468;7.694;2023-05-21T11:52:53;9.77;;;8.98;;
5999;SDS011;3028;49.468;7.694;2023-05-21T11:54:55;9.85;;;8.93;;
5999;SDS011;3028;49.468;7.694;2023-05-21T11:56:58;9.63;;;8.82;;
5999;SDS011;3028;49.468;7.694;2023-05-21T11:59:01;9.43;;;8.60;;
5999;SDS011;3028;49.468;7.694;2023-05-21T12:01:03;8.93;;;8.23;;
5999;SDS011;3028;49.468;7.694;2023-05-21T12:03:05;8.23;;;7.65;;
5999;SDS011;3028;49.468;7.694;2023-05-21T12:05:13;10.20;;;9.40;;
5999;SDS011;3028;49.468;7.694;2023-05-21T12:07:15;8.85;;;8.15;;
5999;SDS011;3028;49.468;7.694;2023-05-21T12:09:19;8.02;;;7.32;;
5999;SDS011;3028;49.468;7.694;2023-05-21T12:11:21;8.68;;;8.07;;
5999;SDS011;3028;49.468;7.694;2023-05-21T12:13:23;7.43;;;6.93;;
5999;SDS011;3028;49.468;7.694;2023-05-21T12:15:26;8.43;;;7.72;;
5999;SDS011;3028;49.468;7.694;2023-05-21T12:17:29;9.70;;;8.90;;
5999;SDS011;3028;49.468;7.694;2023-05-21T12:19:32;9.15;;;8.35;;
5999;SDS011;3028;49.468;7.694;2023-05-21T12:21:35;8.45;;;7.93;;
5999;SDS011;3028;49.468;7.694;2023-05-21T12:23:37;8.20;;;7.60;;
5999;SDS011;3028;49.468;7.694;2023-05-21T12:25:38;8.05;;;7.45;;
5999;SDS011;3028;49.468;7.694;2023-05-21T12:27:41;7.20;;;6.70;;
5999;SDS011;3028;49.468;7.694;2023-05-21T12:29:47;8.10;;;7.50;;
5999;SDS011;3028;49.468;7.694;2023-05-21T12:31:50;9.10;;;8.30;;
5999;SDS011;3028;49.468;7.694;2023-05-21T12:33:52;9.07;;;8.38;;
5999;SDS011;3028;49.468;7.694;2023-05-21T12:35:54;9.27;;;8.57;;
5999;SDS011;3028;49.468;7.694;2023-05-21T12:37:59;9.70;;;8.90;;
5999;SDS011;3028;49.468;7.694;2023-05-21T12:40:02;11.73;;;10.07;;
5999;SDS011;3028;49.468;7.694;2023-05-21T12:42:10;8.70;;;8.05;;
5999;SDS011;3028;49.468;7.694;2023-05-21T12:44:17;8.38;;;7.80;;
5999;SDS011;3028;49.468;7.694;2023-05-21T12:46:20;8.32;;;7.72;;